createdAt,value
2023-01-22T00:01:29.233Z,6.53
2023-01-22T00:04:55.817Z,6.07
2023-01-22T00:08:22.676Z,6.38
2023-01-22T00:11:50.343Z,7.68
2023-01-22T00:15:18.486Z,6.05
2023-01-22T00:18:45.233Z,6.85
2023-01-22T00:22:12.993Z,6.00
2023-01-22T00:25:39.709Z,7.97
2023-01-22T00:29:06.588Z,7.22
2023-01-22T00:32:34.802Z,6.70
2023-01-22T00:36:05.011Z,6.50
2023-01-22T00:39:31.599Z,7.70
2023-01-22T00:42:58.987Z,6.25
2023-01-22T00:46:26.177Z,6.50
2023-01-22T00:49:54.339Z,7.85
2023-01-22T00:53:21.097Z,6.93
2023-01-22T00:56:51.580Z,6.78
2023-01-22T01:00:18.872Z,6.55
2023-01-22T01:03:48.464Z,6.85
2023-01-22T01:07:17.298Z,6.75
2023-01-22T01:10:44.294Z,7.78
2023-01-22T01:14:11.041Z,7.70
2023-01-22T01:17:37.783Z,7.20
2023-01-22T01:21:07.529Z,7.47
2023-01-22T01:24:36.647Z,7.85
2023-01-22T01:28:05.378Z,8.23
2023-01-22T01:31:32.359Z,7.20
2023-01-22T01:34:59.473Z,6.63
2023-01-22T01:38:26.393Z,8.15
2023-01-22T01:41:54.412Z,7.55
2023-01-22T01:45:28.176Z,6.68
2023-01-22T01:48:57.142Z,7.85
2023-01-22T01:52:28.290Z,8.10
2023-01-22T01:56:00.467Z,9.15
2023-01-22T01:59:33.601Z,8.90
2023-01-22T02:03:01.784Z,7.28
2023-01-22T02:06:31.530Z,7.95
2023-01-22T02:09:58.897Z,7.95
2023-01-22T02:13:29.645Z,8.38
2023-01-22T02:17:02.857Z,7.00
2023-01-22T02:20:29.443Z,8.27
2023-01-22T02:23:57.553Z,7.22
2023-01-22T02:27:24.845Z,7.80
2023-01-22T02:30:51.854Z,6.55
2023-01-22T02:34:19.508Z,7.13
2023-01-22T02:37:47.125Z,6.25
2023-01-22T02:41:15.517Z,5.72
2023-01-22T02:44:42.331Z,6.72
2023-01-22T02:48:09.668Z,6.10
2023-01-22T02:51:36.270Z,6.15
2023-01-22T02:55:04.129Z,5.53
2023-01-22T02:58:32.612Z,5.15
2023-01-22T03:02:07.031Z,6.75
2023-01-22T03:05:33.810Z,5.45
2023-01-22T03:09:04.036Z,6.80
2023-01-22T03:12:55.480Z,5.75
2023-01-22T03:16:40.167Z,5.97
2023-01-22T03:20:25.394Z,6.60
2023-01-22T03:23:54.918Z,6.93
2023-01-22T03:27:24.657Z,6.95
2023-01-22T03:30:53.030Z,6.70
2023-01-22T03:34:21.092Z,6.88
2023-01-22T03:37:49.633Z,6.47
2023-01-22T03:41:18.248Z,7.57
2023-01-22T03:44:46.977Z,8.10
2023-01-22T03:48:15.486Z,8.35
2023-01-22T03:51:42.779Z,8.55
2023-01-22T03:55:11.081Z,6.65
2023-01-22T03:58:38.562Z,8.75
2023-01-22T04:02:08.004Z,9.77
2023-01-22T04:05:45.537Z,10.15
2023-01-22T04:09:12.143Z,8.98
2023-01-22T04:12:45.454Z,8.50
2023-01-22T04:16:15.629Z,9.77
2023-01-22T04:20:01.842Z,8.65
2023-01-22T04:23:43.299Z,7.85
2023-01-22T04:27:10.339Z,9.07
2023-01-22T04:30:37.236Z,9.60
2023-01-22T04:34:23.143Z,8.27
2023-01-22T04:38:13.690Z,11.25
2023-01-22T04:41:41.756Z,9.45
2023-01-22T04:45:09.422Z,10.90
2023-01-22T04:48:39.118Z,8.93
2023-01-22T04:52:06.113Z,9.65
2023-01-22T04:55:34.613Z,9.80
2023-01-22T04:59:05.032Z,9.40
2023-01-22T05:02:31.718Z,9.98
2023-01-22T05:05:58.540Z,11.18
2023-01-22T05:09:25.766Z,9.27
2023-01-22T05:12:56.428Z,8.43
2023-01-22T05:16:25.421Z,9.73
2023-01-22T05:19:52.819Z,9.90
2023-01-22T05:23:21.421Z,9.98
2023-01-22T05:26:49.074Z,10.70
2023-01-22T05:30:24.963Z,11.02
2023-01-22T05:33:59.307Z,10.15
2023-01-22T05:37:29.889Z,9.65
2023-01-22T05:40:57.569Z,11.07
2023-01-22T05:44:26.283Z,8.82
2023-01-22T05:47:56.249Z,8.57
2023-01-22T05:51:48.696Z,9.93
2023-01-22T05:55:16.891Z,9.45
2023-01-22T05:58:46.005Z,10.32
2023-01-22T06:02:14.919Z,8.63
2023-01-22T06:05:43.725Z,10.15
2023-01-22T06:09:12.601Z,10.77
2023-01-22T06:12:39.747Z,9.93
2023-01-22T06:16:07.535Z,9.38
2023-01-22T06:19:54.450Z,10.65
2023-01-22T06:23:22.933Z,9.48
2023-01-22T06:26:52.303Z,10.20
2023-01-22T06:30:20.984Z,8.65
2023-01-22T06:33:51.641Z,9.82
2023-01-22T06:37:21.355Z,9.80
2023-01-22T06:40:52.017Z,10.00
2023-01-22T06:44:19.921Z,8.88
2023-01-22T06:47:47.833Z,8.00
2023-01-22T06:51:15.758Z,9.15
2023-01-22T06:54:44.228Z,10.23
2023-01-22T06:58:11.031Z,10.65
2023-01-22T07:01:37.934Z,9.35
2023-01-22T07:05:04.863Z,9.95
2023-01-22T07:08:33.284Z,11.50
2023-01-22T07:12:02.383Z,9.07
2023-01-22T07:15:29.656Z,9.20
2023-01-22T07:18:56.439Z,9.07
2023-01-22T07:22:23.555Z,9.18
2023-01-22T07:25:50.150Z,9.02
2023-01-22T07:29:18.648Z,9.23
2023-01-22T07:32:46.309Z,9.07
2023-01-22T07:36:13.046Z,9.43
2023-01-22T07:39:39.742Z,9.15
2023-01-22T07:43:07.349Z,8.95
2023-01-22T07:46:35.830Z,10.85
2023-01-22T07:50:02.994Z,10.82
2023-01-22T07:53:30.251Z,11.20
2023-01-22T07:56:56.881Z,9.25
2023-01-22T08:00:23.770Z,9.70
2023-01-22T08:03:52.453Z,9.13
2023-01-22T08:07:20.077Z,12.18
2023-01-22T08:10:46.967Z,12.73
2023-01-22T08:14:13.922Z,11.38
2023-01-22T08:17:41.191Z,12.05
2023-01-22T08:21:10.445Z,12.43
2023-01-22T08:24:37.672Z,11.85
2023-01-22T08:28:05.631Z,12.18
2023-01-22T08:31:33.149Z,11.05
2023-01-22T08:35:00.531Z,10.60
2023-01-22T08:38:28.933Z,9.25
2023-01-22T08:41:57.950Z,9.70
2023-01-22T08:45:25.988Z,9.82
2023-01-22T08:48:55.639Z,10.23
2023-01-22T08:52:22.433Z,10.40
2023-01-22T08:55:57.566Z,12.25
2023-01-22T08:59:24.515Z,11.15
2023-01-22T09:02:51.827Z,10.00
2023-01-22T09:06:19.431Z,10.75
2023-01-22T09:09:46.285Z,10.73
2023-01-22T09:13:14.817Z,12.20
2023-01-22T09:16:41.734Z,13.40
2023-01-22T09:20:12.621Z,12.70
2023-01-22T09:23:39.429Z,14.25
2023-01-22T09:27:06.465Z,13.00
2023-01-22T09:30:35.869Z,12.85
2023-01-22T09:34:03.540Z,12.77
2023-01-22T09:37:30.837Z,12.68
2023-01-22T09:40:58.928Z,12.35
2023-01-22T09:44:33.364Z,11.98
2023-01-22T09:48:09.828Z,10.73
2023-01-22T09:51:37.628Z,12.52
2023-01-22T09:55:07.055Z,12.10
2023-01-22T09:58:35.902Z,13.52
2023-01-22T10:02:19.610Z,12.82
2023-01-22T10:05:52.077Z,18.60
2023-01-22T10:09:21.911Z,14.65
2023-01-22T10:12:55.307Z,13.75
2023-01-22T10:16:22.946Z,12.55
2023-01-22T10:19:55.440Z,12.52
2023-01-22T10:23:25.588Z,16.13
2023-01-22T10:26:56.104Z,11.77
2023-01-22T10:30:27.768Z,13.45
2023-01-22T10:34:01.847Z,16.35
2023-01-22T10:37:29.807Z,13.02
2023-01-22T10:40:59.469Z,12.05
2023-01-22T10:44:30.821Z,12.27
2023-01-22T10:48:12.747Z,13.02
2023-01-22T10:51:43.620Z,13.45
2023-01-22T10:55:22.554Z,16.23
2023-01-22T10:58:52.615Z,16.00
2023-01-22T11:02:28.280Z,16.23
2023-01-22T11:06:00.297Z,17.23
2023-01-22T11:09:33.427Z,17.25
2023-01-22T11:13:09.608Z,18.70
2023-01-22T11:16:42.182Z,16.38
2023-01-22T11:20:18.404Z,18.92
2023-01-22T11:23:55.186Z,21.13
2023-01-22T11:27:38.576Z,18.85
2023-01-22T11:31:19.856Z,19.08
2023-01-22T11:34:59.695Z,17.15
2023-01-22T11:38:39.983Z,16.67
2023-01-22T11:42:20.429Z,15.80
2023-01-22T11:46:13.107Z,15.75
2023-01-22T11:49:58.370Z,13.88
2023-01-22T11:53:41.411Z,17.30
2023-01-22T11:57:20.556Z,15.68
2023-01-22T12:01:11.647Z,14.30
2023-01-22T12:04:55.741Z,14.30
2023-01-22T12:08:57.329Z,15.30
2023-01-22T12:12:42.128Z,13.23
2023-01-22T12:16:25.120Z,14.45
2023-01-22T12:20:08.810Z,14.52
2023-01-22T12:23:42.127Z,14.27
2023-01-22T12:27:17.090Z,16.98
2023-01-22T12:30:54.594Z,17.17
2023-01-22T12:34:27.039Z,13.85
2023-01-22T12:38:01.161Z,19.15
2023-01-22T12:41:50.738Z,12.90
2023-01-22T12:45:24.865Z,15.27
2023-01-22T12:48:59.029Z,15.13
2023-01-22T12:52:32.260Z,15.45
2023-01-22T12:56:01.687Z,13.98
2023-01-22T12:59:32.507Z,12.30
2023-01-22T13:03:00.363Z,12.38
2023-01-22T13:06:40.021Z,10.77
2023-01-22T13:10:25.086Z,13.10
2023-01-22T13:14:03.197Z,12.32
2023-01-22T13:17:38.045Z,13.65
2023-01-22T13:21:16.050Z,11.20
2023-01-22T13:24:50.267Z,10.82
2023-01-22T13:28:22.248Z,12.48
2023-01-22T13:31:58.908Z,11.75
2023-01-22T13:35:26.615Z,13.50
2023-01-22T13:38:54.984Z,11.70
2023-01-22T13:42:28.276Z,13.00
2023-01-22T13:45:56.595Z,12.80
2023-01-22T13:49:27.620Z,13.07
2023-01-22T13:52:55.670Z,13.10
2023-01-22T13:56:26.811Z,12.55
2023-01-22T14:00:05.391Z,13.88
2023-01-22T14:03:35.981Z,15.35
2023-01-22T14:07:04.739Z,12.80
2023-01-22T14:10:33.252Z,14.38
2023-01-22T14:14:01.361Z,15.52
2023-01-22T14:17:39.260Z,14.27
2023-01-22T14:21:09.124Z,14.68
2023-01-22T14:24:36.721Z,11.43
2023-01-22T14:28:04.222Z,12.95
2023-01-22T14:31:31.320Z,12.65
2023-01-22T14:34:58.204Z,11.95
2023-01-22T14:38:27.145Z,17.40
2023-01-22T14:41:54.397Z,11.65
2023-01-22T14:45:21.342Z,12.95
2023-01-22T14:48:49.858Z,10.50
2023-01-22T14:52:16.755Z,8.55
2023-01-22T14:55:45.625Z,8.15
2023-01-22T14:59:12.988Z,9.32
2023-01-22T15:02:40.128Z,7.07
2023-01-22T15:06:08.330Z,9.75
2023-01-22T15:09:35.595Z,7.60
2023-01-22T15:13:04.210Z,8.48
2023-01-22T15:16:31.069Z,7.75
2023-01-22T15:19:58.069Z,8.02
2023-01-22T15:23:25.006Z,4.70
2023-01-22T15:27:02.107Z,6.80
2023-01-22T15:30:30.584Z,5.43
2023-01-22T15:33:58.126Z,7.78
2023-01-22T15:37:25.312Z,6.68
2023-01-22T15:41:02.527Z,5.20
2023-01-22T15:44:30.470Z,7.40
2023-01-22T15:47:59.284Z,8.18
2023-01-22T15:51:26.497Z,6.45
2023-01-22T15:54:54.818Z,8.48
2023-01-22T15:58:21.826Z,7.93
2023-01-22T16:01:49.744Z,11.25
2023-01-22T16:05:20.487Z,9.65
2023-01-22T16:08:48.577Z,9.40
2023-01-22T16:12:15.802Z,10.00
2023-01-22T16:15:42.453Z,11.50
2023-01-22T16:19:11.135Z,12.40
2023-01-22T16:22:39.825Z,11.02
2023-01-22T16:26:09.461Z,12.13
2023-01-22T16:29:36.617Z,10.73
2023-01-22T16:33:17.199Z,9.80
2023-01-22T16:36:46.170Z,9.15
2023-01-22T16:40:19.014Z,10.10
2023-01-22T16:43:58.808Z,7.60
2023-01-22T16:47:26.789Z,8.85
2023-01-22T16:50:54.044Z,8.45
2023-01-22T16:54:23.639Z,8.52
2023-01-22T16:57:50.692Z,8.40
2023-01-22T17:01:18.728Z,7.05
2023-01-22T17:04:46.206Z,7.78
2023-01-22T17:08:13.345Z,6.95
2023-01-22T17:11:43.757Z,7.80
2023-01-22T17:15:11.042Z,6.60
2023-01-22T17:18:38.644Z,6.97
2023-01-22T17:22:06.437Z,6.38
2023-01-22T17:25:33.914Z,6.93
2023-01-22T17:29:02.630Z,7.45
2023-01-22T17:32:30.107Z,6.90
2023-01-22T17:35:59.439Z,7.00
2023-01-22T17:39:27.362Z,7.10
2023-01-22T17:42:54.402Z,6.57
2023-01-22T17:46:23.927Z,7.28
2023-01-22T17:49:51.536Z,6.35
2023-01-22T17:53:18.925Z,7.72
2023-01-22T17:56:48.608Z,5.97
2023-01-22T18:00:17.535Z,7.82
2023-01-22T18:03:46.819Z,6.75
2023-01-22T18:07:14.501Z,5.93
2023-01-22T18:10:41.167Z,7.38
2023-01-22T18:14:10.438Z,6.47
2023-01-22T18:17:38.806Z,7.57
2023-01-22T18:21:09.717Z,8.05
2023-01-22T18:24:36.850Z,7.63
2023-01-22T18:28:04.282Z,7.70
2023-01-22T18:31:31.369Z,8.32
2023-01-22T18:34:59.421Z,9.63
2023-01-22T18:38:28.907Z,7.88
2023-01-22T18:41:56.325Z,8.27
2023-01-22T18:45:23.628Z,8.63
2023-01-22T18:48:53.964Z,8.23
2023-01-22T18:52:20.907Z,10.35
2023-01-22T18:55:49.793Z,13.13
2023-01-22T18:59:17.483Z,10.88
2023-01-22T19:02:44.724Z,11.10
2023-01-22T19:06:14.825Z,10.98
2023-01-22T19:09:43.618Z,11.15
2023-01-22T19:13:13.409Z,11.85
2023-01-22T19:16:44.312Z,13.75
2023-01-22T19:20:15.459Z,12.85
2023-01-22T19:23:45.117Z,13.98
2023-01-22T19:27:14.718Z,11.25
2023-01-22T19:30:41.989Z,13.65
2023-01-22T19:34:09.112Z,12.70
2023-01-22T19:37:37.602Z,12.30
2023-01-22T19:41:05.409Z,13.50
2023-01-22T19:44:34.863Z,13.45
2023-01-22T19:48:06.858Z,13.13
2023-01-22T19:51:34.077Z,12.20
2023-01-22T19:55:01.148Z,14.13
2023-01-22T19:58:29.109Z,14.00
2023-01-22T20:01:57.863Z,12.85
2023-01-22T20:05:26.695Z,12.73
2023-01-22T20:08:56.812Z,13.02
2023-01-22T20:12:23.930Z,12.23
2023-01-22T20:15:51.027Z,11.90
2023-01-22T20:19:19.730Z,11.20
2023-01-22T20:22:47.139Z,11.82
2023-01-22T20:26:14.864Z,12.10
2023-01-22T20:29:42.106Z,14.13
2023-01-22T20:33:11.191Z,11.85
2023-01-22T20:36:41.642Z,15.07
2023-01-22T20:40:09.516Z,13.10
2023-01-22T20:43:36.852Z,13.68
2023-01-22T20:47:04.732Z,13.98
2023-01-22T20:50:31.419Z,14.80
2023-01-22T20:53:59.559Z,14.77
2023-01-22T20:57:28.004Z,14.02
2023-01-22T21:00:54.874Z,13.80
2023-01-22T21:04:22.500Z,13.30
2023-01-22T21:07:49.340Z,14.20
2023-01-22T21:11:20.413Z,16.17
2023-01-22T21:14:47.950Z,15.63
2023-01-22T21:18:14.801Z,18.05
2023-01-22T21:21:41.860Z,14.80
2023-01-22T21:25:09.329Z,14.52
2023-01-22T21:28:39.763Z,16.60
2023-01-22T21:32:07.319Z,16.65
2023-01-22T21:35:34.239Z,15.40
2023-01-22T21:39:01.226Z,16.33
2023-01-22T21:42:47.597Z,15.88
2023-01-22T21:46:26.246Z,15.82
2023-01-22T21:49:53.784Z,19.20
2023-01-22T21:53:20.418Z,16.40
2023-01-22T21:56:51.376Z,16.33
2023-01-22T22:00:21.368Z,15.52
2023-01-22T22:03:48.984Z,15.98
2023-01-22T22:07:16.449Z,15.95
2023-01-22T22:10:49.722Z,16.13
2023-01-22T22:14:17.288Z,14.48
2023-01-22T22:17:46.643Z,14.55
2023-01-22T22:21:13.436Z,13.77
2023-01-22T22:24:40.799Z,14.88
2023-01-22T22:28:07.826Z,14.02
2023-01-22T22:31:35.018Z,16.98
2023-01-22T22:35:03.524Z,13.13
2023-01-22T22:38:30.348Z,15.88
2023-01-22T22:41:58.790Z,14.40
2023-01-22T22:45:25.788Z,15.43
2023-01-22T22:48:53.727Z,14.90
2023-01-22T22:52:23.085Z,14.70
2023-01-22T22:55:50.042Z,14.52
2023-01-22T22:59:18.725Z,17.83
2023-01-22T23:02:45.462Z,15.65
2023-01-22T23:06:13.564Z,16.60
2023-01-22T23:09:42.954Z,15.95
2023-01-22T23:13:09.575Z,16.38
2023-01-22T23:16:37.828Z,17.15
2023-01-22T23:20:06.566Z,16.00
2023-01-22T23:23:33.088Z,18.13
2023-01-22T23:27:01.818Z,14.32
2023-01-22T23:30:28.843Z,14.57
2023-01-22T23:33:56.634Z,16.17
2023-01-22T23:37:24.226Z,15.45
2023-01-22T23:40:56.862Z,15.38
2023-01-22T23:44:25.081Z,15.50
2023-01-22T23:47:52.360Z,16.90
2023-01-22T23:51:20.315Z,15.63
2023-01-22T23:54:48.174Z,15.07
2023-01-22T23:58:15.261Z,18.77
